createdAt,value
2022-11-23T09:06:29.345Z,59.56
2022-11-23T09:21:36.023Z,66.30
2022-11-23T09:36:39.862Z,74.07
2022-11-23T09:51:45.146Z,80.48
2022-11-23T10:06:58.262Z,83.56
2022-11-23T10:22:14.219Z,85.86
2022-11-23T10:37:18.912Z,87.16
2022-11-23T10:52:50.677Z,89.72
2022-11-23T11:08:00.722Z,89.49
2022-11-23T11:23:20.624Z,90.58
2022-11-23T11:38:33.295Z,91.07
2022-11-23T11:53:59.404Z,90.98
2022-11-23T12:09:19.203Z,90.40
2022-11-23T12:24:50.827Z,90.53
2022-11-23T12:40:14.564Z,91.40
2022-11-23T12:55:48.754Z,91.67
2022-11-23T13:11:14.567Z,92.67
2022-11-23T13:26:21.220Z,92.08
2022-11-23T13:41:39.976Z,91.83
2022-11-23T13:56:45.050Z,91.51
2022-11-23T14:24:02.712Z,92.64
2022-11-23T14:39:18.533Z,92.27
2022-11-23T14:54:22.432Z,92.50
2022-11-23T15:10:05.484Z,92.56
2022-11-23T15:25:13.812Z,91.41
2022-11-23T15:40:19.190Z,93.16
2022-11-23T15:55:23.817Z,92.85
2022-11-23T16:10:29.826Z,92.85
2022-11-23T16:25:35.178Z,92.42
2022-11-23T16:40:45.047Z,92.39
2022-11-23T16:55:53.849Z,92.03
2022-11-23T17:10:57.349Z,92.05
2022-11-23T17:26:00.765Z,91.86
2022-11-23T17:41:04.714Z,92.72
2022-11-23T17:56:17.247Z,91.89
2022-11-23T18:11:22.280Z,92.03
2022-11-23T18:26:27.355Z,92.40
2022-11-23T18:41:31.413Z,91.84
2022-11-23T18:56:35.520Z,91.58
2022-11-23T19:11:38.949Z,91.69
2022-11-23T19:26:42.170Z,91.57
2022-11-23T19:41:45.959Z,91.76
2022-11-23T19:56:51.145Z,90.97
2022-11-23T20:11:55.032Z,92.00
2022-11-23T20:26:59.389Z,91.69
2022-11-23T20:42:02.822Z,91.77
2022-11-23T20:57:06.884Z,92.08
2022-11-23T21:12:29.730Z,92.64
2022-11-23T21:27:33.525Z,93.03
2022-11-23T21:42:36.732Z,93.71
2022-11-23T21:57:40.167Z,93.08
2022-11-23T22:12:43.930Z,92.57
2022-11-23T22:27:47.241Z,92.21
2022-11-23T22:42:50.646Z,92.79
2022-11-23T22:57:54.018Z,92.40
2022-11-23T23:12:57.441Z,92.85
2022-11-23T23:28:01.315Z,92.98
2022-11-23T23:43:04.813Z,93.94
2022-11-23T23:58:07.980Z,94.19
